YCBG weather

Hobart Cambridge Airport
Tasmania, Australia

Public forecast

Using degrees Celsius for public forecast. Weather courtesy of forecast.io.

METAR (pilot weather report)

Closest report is Hobart International Airport, 1.6 nm (3.0 km) ESE. Retrieved 2017/09/20 21:30 UTC (0 seconds ago):

YMHB 202130Z 36009KT 9999 FEW020 BKN110 BKN130 12/06 Q1008 RF00.0/000.0

TAF (pilot weather forecast)

Closest forecast is Hobart International Airport, 1.6 nm (3.0 km) ESE. Retrieved 2017/09/20 18:37 UTC (3 hours ago):

TAF YMHB 201721Z 2018/2118 01006KT 9999 -SHRA NSC FM210000 35016KT 9999 -SHRA NSC FM210500 28014KT 9999 SCT050